createdAt,value
2019-05-06T00:00:00.626Z,6.03
2019-05-06T00:02:28.801Z,5.80
2019-05-06T00:04:56.932Z,6.23
2019-05-06T00:07:26.607Z,6.42
2019-05-06T00:09:54.737Z,5.97
2019-05-06T00:12:23.964Z,6.15
2019-05-06T00:14:54.069Z,6.37
2019-05-06T00:17:23.932Z,6.37
2019-05-06T00:19:53.929Z,6.17
2019-05-06T00:22:23.743Z,6.75
2019-05-06T00:24:57.096Z,6.40
2019-05-06T00:27:34.234Z,6.70
2019-05-06T00:30:04.515Z,6.67
2019-05-06T00:32:34.762Z,6.25
2019-05-06T00:35:04.569Z,6.90
2019-05-06T00:37:34.762Z,6.45
2019-05-06T00:40:04.832Z,6.72
2019-05-06T00:42:36.250Z,7.00
2019-05-06T00:45:07.394Z,6.75
2019-05-06T00:47:35.618Z,6.55
2019-05-06T00:50:06.254Z,7.10
2019-05-06T00:52:34.543Z,6.20
2019-05-06T00:55:04.165Z,6.80
2019-05-06T00:57:46.481Z,6.37
2019-05-06T01:00:16.209Z,6.35
2019-05-06T01:02:44.335Z,6.05
2019-05-06T01:05:14.090Z,6.47
2019-05-06T01:07:44.104Z,5.45
2019-05-06T01:10:14.300Z,5.92
2019-05-06T01:12:44.323Z,6.10
2019-05-06T01:15:14.356Z,6.45
2019-05-06T01:17:44.361Z,5.83
2019-05-06T01:20:13.976Z,6.47
2019-05-06T01:22:43.709Z,6.05
2019-05-06T01:25:14.250Z,6.75
2019-05-06T01:27:44.401Z,6.62
2019-05-06T01:30:13.743Z,6.85
2019-05-06T01:32:43.592Z,7.20
2019-05-06T01:35:13.896Z,6.50
2019-05-06T01:37:44.110Z,7.25
2019-05-06T01:40:34.583Z,7.20
2019-05-06T01:43:04.457Z,7.80
2019-05-06T01:45:34.850Z,7.25
2019-05-06T01:48:04.028Z,6.97
2019-05-06T01:50:34.329Z,6.85
2019-05-06T01:53:04.971Z,6.35
2019-05-06T01:55:34.290Z,6.50
2019-05-06T01:58:02.522Z,6.08
2019-05-06T02:00:30.582Z,6.15
2019-05-06T02:02:58.772Z,5.97
2019-05-06T02:05:26.849Z,6.10
2019-05-06T02:07:56.437Z,5.00
2019-05-06T02:10:24.570Z,5.00
2019-05-06T02:12:54.111Z,4.85
2019-05-06T02:15:24.034Z,5.22
2019-05-06T02:17:52.223Z,5.10
2019-05-06T02:20:20.429Z,5.22
2019-05-06T02:22:50.195Z,4.75
2019-05-06T02:25:24.442Z,5.50
2019-05-06T02:27:54.158Z,4.83
2019-05-06T02:30:25.280Z,5.20
2019-05-06T02:32:58.154Z,4.87
2019-05-06T02:35:34.809Z,5.37
2019-05-06T02:38:04.805Z,5.25
2019-05-06T02:40:33.385Z,5.28
2019-05-06T02:43:03.277Z,5.12
2019-05-06T02:45:33.449Z,5.10
2019-05-06T02:48:09.227Z,5.35
2019-05-06T02:50:46.001Z,5.10
2019-05-06T02:53:15.819Z,5.35
2019-05-06T02:55:43.926Z,5.55
2019-05-06T02:58:14.898Z,5.07
2019-05-06T03:00:43.285Z,5.20
2019-05-06T03:03:14.079Z,5.35
2019-05-06T03:05:43.951Z,5.33
2019-05-06T03:08:13.476Z,5.40
2019-05-06T03:10:44.317Z,5.78
2019-05-06T03:13:14.174Z,5.42
2019-05-06T03:15:43.382Z,5.65
2019-05-06T03:18:14.741Z,6.08
2019-05-06T03:20:44.147Z,5.70
2019-05-06T03:23:14.384Z,5.78
2019-05-06T03:25:44.420Z,5.67
2019-05-06T03:28:13.246Z,5.70
2019-05-06T03:30:45.754Z,6.03
2019-05-06T03:33:38.454Z,5.67
2019-05-06T03:35:58.004Z,5.90
2019-05-06T03:38:13.720Z,6.20
2019-05-06T03:40:45.745Z,6.42
2019-05-06T03:43:13.187Z,6.00
2019-05-06T03:45:43.959Z,6.35
2019-05-06T03:48:29.119Z,6.70
2019-05-06T03:50:57.223Z,6.42
2019-05-06T03:53:27.490Z,6.22
2019-05-06T03:55:56.668Z,6.10
2019-05-06T03:58:26.877Z,6.10
2019-05-06T04:00:55.915Z,6.22
2019-05-06T04:03:41.978Z,6.20
2019-05-06T04:05:55.965Z,5.62
2019-05-06T04:08:24.316Z,6.00
2019-05-06T04:10:53.852Z,5.80
2019-05-06T04:13:23.211Z,5.92
2019-05-06T04:16:05.836Z,6.08
2019-05-06T04:18:35.670Z,5.10
2019-05-06T04:21:24.006Z,5.55
2019-05-06T04:23:55.767Z,5.75
2019-05-06T04:26:32.958Z,5.28
2019-05-06T04:29:03.864Z,4.87
2019-05-06T04:31:33.541Z,5.00
2019-05-06T04:34:09.819Z,4.67
2019-05-06T04:36:33.805Z,5.12
2019-05-06T04:39:04.181Z,5.40
2019-05-06T04:41:34.081Z,5.30
2019-05-06T04:44:02.910Z,5.30
2019-05-06T04:46:34.404Z,5.03
2019-05-06T04:49:03.970Z,4.80
2019-05-06T04:51:36.857Z,4.87
2019-05-06T04:54:04.223Z,5.05
2019-05-06T04:56:33.369Z,4.55
2019-05-06T04:59:05.775Z,4.55
2019-05-06T05:01:34.077Z,4.85
2019-05-06T05:04:03.554Z,4.55
2019-05-06T05:06:32.834Z,4.70
2019-05-06T05:09:02.909Z,4.55
2019-05-06T05:11:43.374Z,4.20
2019-05-06T05:14:19.670Z,4.72
2019-05-06T05:17:03.758Z,4.50
2019-05-06T05:19:32.766Z,4.33
2019-05-06T05:22:07.225Z,4.50
2019-05-06T05:24:36.748Z,4.60
2019-05-06T05:27:05.744Z,4.27
2019-05-06T05:29:34.359Z,4.25
2019-05-06T05:32:02.603Z,3.92
2019-05-06T05:34:39.567Z,4.10
2019-05-06T05:37:00.565Z,4.10
2019-05-06T05:39:28.681Z,4.50
2019-05-06T05:41:58.557Z,4.00
2019-05-06T05:44:28.326Z,3.65
2019-05-06T05:46:56.515Z,3.98
2019-05-06T05:49:39.569Z,4.20
2019-05-06T05:52:07.846Z,4.03
2019-05-06T05:54:36.091Z,3.77
2019-05-06T05:57:04.294Z,3.80
2019-05-06T05:59:33.062Z,3.60
2019-05-06T06:02:03.874Z,3.70
2019-05-06T06:06:43.248Z,3.80
2019-05-06T06:09:12.745Z,3.70
2019-05-06T06:11:53.267Z,3.80
2019-05-06T06:14:43.799Z,3.67
2019-05-06T06:17:23.257Z,3.20
2019-05-06T06:19:53.418Z,3.70
2019-05-06T06:22:23.833Z,3.50
2019-05-06T06:24:52.564Z,3.17
2019-05-06T06:27:22.363Z,3.47
2019-05-06T06:29:52.584Z,3.33
2019-05-06T06:32:24.813Z,3.20
2019-05-06T06:35:10.601Z,3.17
2019-05-06T06:37:48.792Z,3.35
2019-05-06T06:40:18.736Z,3.30
2019-05-06T06:42:48.597Z,3.10
2019-05-06T06:45:16.781Z,3.02
2019-05-06T06:47:44.936Z,3.15
2019-05-06T06:50:14.098Z,3.08
2019-05-06T06:52:42.520Z,3.20
2019-05-06T06:55:12.825Z,2.70
2019-05-06T06:57:59.013Z,2.73
2019-05-06T07:00:28.767Z,2.60
2019-05-06T07:03:04.425Z,2.70
2019-05-06T07:05:37.252Z,2.45
2019-05-06T07:08:05.403Z,2.50
2019-05-06T07:10:45.743Z,2.55
2019-05-06T07:13:14.624Z,2.20
2019-05-06T07:15:42.846Z,1.67
2019-05-06T07:18:13.308Z,1.80
2019-05-06T07:21:03.272Z,1.70
2019-05-06T07:23:32.690Z,1.45
2019-05-06T07:26:03.029Z,1.40
2019-05-06T07:28:32.634Z,1.30
2019-05-06T07:31:14.977Z,1.02
2019-05-06T07:33:33.512Z,1.20
2019-05-06T07:36:02.276Z,1.10
2019-05-06T07:38:32.725Z,1.10
2019-05-06T07:41:18.042Z,1.32
2019-05-06T07:43:57.994Z,1.72
2019-05-06T07:46:39.680Z,1.10
2019-05-06T07:49:07.874Z,1.00
2019-05-06T07:51:36.111Z,0.85
2019-05-06T07:54:04.326Z,1.10
2019-05-06T07:56:32.498Z,1.00
2019-05-06T07:59:03.253Z,1.02
2019-05-06T08:01:33.275Z,0.98
2019-05-06T08:04:02.534Z,1.00
2019-05-06T08:06:32.137Z,0.80
2019-05-06T08:09:00.489Z,0.90
2019-05-06T08:11:29.060Z,1.00
2019-05-06T08:13:58.463Z,1.10
2019-05-06T08:16:28.628Z,0.80
2019-05-06T08:18:56.887Z,1.00
2019-05-06T08:21:29.297Z,0.90
2019-05-06T08:23:57.560Z,0.90
2019-05-06T08:26:25.828Z,1.00
2019-05-06T08:28:54.023Z,0.80
2019-05-06T08:31:22.944Z,0.70
2019-05-06T08:33:52.396Z,0.68
2019-05-06T08:36:22.682Z,0.82
2019-05-06T08:38:57.948Z,1.00
2019-05-06T08:41:26.841Z,0.85
2019-05-06T08:43:55.807Z,1.07
2019-05-06T08:46:24.135Z,1.00
2019-05-06T08:48:52.631Z,1.07
2019-05-06T08:51:39.614Z,1.20
2019-05-06T08:54:15.266Z,1.22
2019-05-06T08:56:43.639Z,1.30
2019-05-06T08:59:13.891Z,1.40
2019-05-06T09:01:46.464Z,1.40
2019-05-06T09:04:16.307Z,1.90
2019-05-06T09:06:44.806Z,1.52
2019-05-06T09:09:13.249Z,1.47
2019-05-06T09:11:43.208Z,1.87
2019-05-06T09:14:13.629Z,2.03
2019-05-06T09:16:43.691Z,1.92
2019-05-06T09:19:12.929Z,1.80
2019-05-06T09:21:45.705Z,2.30
2019-05-06T09:24:12.834Z,2.22
2019-05-06T09:26:43.202Z,2.25
2019-05-06T09:29:19.398Z,2.70
2019-05-06T09:31:49.354Z,2.47
2019-05-06T09:34:37.504Z,2.50
2019-05-06T09:37:13.975Z,2.30
2019-05-06T09:39:43.940Z,2.37
2019-05-06T09:42:12.949Z,2.50
2019-05-06T09:44:42.726Z,2.27
2019-05-06T09:47:12.966Z,2.52
2019-05-06T09:49:42.882Z,1.80
2019-05-06T09:52:13.001Z,2.22
2019-05-06T09:54:54.707Z,2.10
2019-05-06T09:57:24.578Z,2.50
2019-05-06T09:59:52.824Z,2.37
2019-05-06T10:02:23.098Z,2.77
2019-05-06T10:04:52.405Z,3.08
2019-05-06T10:07:22.557Z,3.45
2019-05-06T10:09:52.597Z,4.00
2019-05-06T10:12:21.117Z,3.72
2019-05-06T10:14:49.395Z,4.20
2019-05-06T10:17:17.753Z,4.67
2019-05-06T10:19:46.202Z,5.25
2019-05-06T10:22:14.460Z,5.60
2019-05-06T10:24:43.460Z,3.85
2019-05-06T10:27:12.255Z,4.00
2019-05-06T10:29:46.215Z,4.03
2019-05-06T10:32:28.046Z,4.03
2019-05-06T10:34:56.312Z,4.20
2019-05-06T10:37:33.500Z,4.37
2019-05-06T10:40:09.415Z,4.78
2019-05-06T10:42:39.228Z,4.75
2019-05-06T10:45:12.409Z,4.58
2019-05-06T10:47:42.341Z,4.40
2019-05-06T10:50:12.599Z,4.50
2019-05-06T10:52:44.950Z,14.03
2019-05-06T10:55:13.177Z,8.58
2019-05-06T10:57:43.193Z,4.83
2019-05-06T11:00:13.664Z,4.70
2019-05-06T11:02:46.414Z,4.70
2019-05-06T11:05:14.695Z,4.75
2019-05-06T11:07:43.176Z,5.33
2019-05-06T11:10:21.654Z,4.78
2019-05-06T11:12:43.069Z,4.92
2019-05-06T11:15:12.931Z,5.03
2019-05-06T11:17:43.423Z,5.12
2019-05-06T11:20:13.973Z,5.25
2019-05-06T11:22:43.570Z,5.60
2019-05-06T11:25:12.373Z,6.12
2019-05-06T11:27:44.303Z,6.20
2019-05-06T11:30:12.812Z,5.93
2019-05-06T11:32:45.514Z,4.90
2019-05-06T11:35:15.414Z,6.50
2019-05-06T11:37:49.994Z,8.10
2019-05-06T11:40:16.976Z,7.80
2019-05-06T11:42:45.238Z,7.83
2019-05-06T11:45:13.657Z,8.68
2019-05-06T11:47:42.177Z,8.35
2019-05-06T11:50:12.950Z,8.38
2019-05-06T11:52:43.300Z,8.40
2019-05-06T11:55:13.887Z,8.40
2019-05-06T11:57:44.634Z,6.70
2019-05-06T12:00:14.657Z,6.03
2019-05-06T12:02:48.002Z,5.33
2019-05-06T12:05:13.033Z,4.45
2019-05-06T12:07:43.389Z,3.83
2019-05-06T12:10:12.983Z,4.30
2019-05-06T12:12:42.532Z,4.65
2019-05-06T12:15:12.619Z,4.62
2019-05-06T12:17:42.177Z,5.10
2019-05-06T12:20:13.086Z,5.50
2019-05-06T12:22:42.387Z,5.92
2019-05-06T12:25:15.075Z,6.50
2019-05-06T12:27:45.901Z,6.33
2019-05-06T12:30:14.971Z,7.10
2019-05-06T12:32:52.653Z,7.60
2019-05-06T12:35:20.949Z,7.37
2019-05-06T12:37:53.054Z,8.18
2019-05-06T12:40:21.558Z,8.25
2019-05-06T12:42:53.499Z,8.70
2019-05-06T12:45:23.282Z,8.98
2019-05-06T12:47:59.425Z,8.90
2019-05-06T12:50:27.603Z,8.95
2019-05-06T12:52:57.875Z,8.00
2019-05-06T12:55:25.635Z,7.42
2019-05-06T12:57:54.016Z,7.50
2019-05-06T13:00:23.609Z,8.05
2019-05-06T13:02:53.080Z,8.15
2019-05-06T13:05:23.472Z,9.00
2019-05-06T13:07:52.764Z,8.45
2019-05-06T13:10:23.152Z,9.20
2019-05-06T13:12:54.079Z,8.60
2019-05-06T13:15:24.470Z,8.90
2019-05-06T13:17:53.640Z,8.18
2019-05-06T13:20:22.884Z,8.65
2019-05-06T13:22:53.623Z,8.80
2019-05-06T13:25:23.357Z,9.15
2019-05-06T13:27:53.361Z,10.55
2019-05-06T13:30:22.722Z,10.43
2019-05-06T13:32:59.230Z,11.10
2019-05-06T13:35:32.556Z,13.65
2019-05-06T13:38:00.129Z,12.50
2019-05-06T13:40:28.457Z,11.45
2019-05-06T13:42:59.837Z,10.98
2019-05-06T13:45:28.124Z,9.33
2019-05-06T13:47:58.051Z,9.75
2019-05-06T13:50:38.409Z,9.83
2019-05-06T13:53:11.180Z,10.03
2019-05-06T13:55:36.744Z,9.00
2019-05-06T13:58:05.141Z,10.10
2019-05-06T14:00:34.895Z,9.30
2019-05-06T14:03:03.112Z,9.30
2019-05-06T14:05:33.005Z,9.95
2019-05-06T14:08:04.580Z,10.23
2019-05-06T14:10:32.767Z,8.80
2019-05-06T14:13:02.406Z,8.23
2019-05-06T14:15:32.509Z,8.90
2019-05-06T14:18:02.696Z,8.20
2019-05-06T14:20:33.394Z,9.35
2019-05-06T14:23:02.236Z,8.85
2019-05-06T14:25:48.046Z,8.33
2019-05-06T14:28:32.382Z,8.68
2019-05-06T14:31:05.639Z,8.97
2019-05-06T14:33:33.937Z,9.67
2019-05-06T14:36:03.194Z,8.60
2019-05-06T14:38:32.764Z,9.58
2019-05-06T14:41:04.421Z,8.38
2019-05-06T14:43:32.779Z,8.60
2019-05-06T14:46:01.159Z,8.10
2019-05-06T14:48:29.361Z,7.92
2019-05-06T14:50:57.624Z,8.00
2019-05-06T14:53:25.812Z,7.67
2019-05-06T14:55:55.728Z,7.92
2019-05-06T14:58:23.913Z,7.43
2019-05-06T15:00:53.347Z,7.33
2019-05-06T15:03:22.138Z,6.83
2019-05-06T15:05:50.365Z,5.62
2019-05-06T15:08:18.791Z,5.72
2019-05-06T15:10:49.400Z,6.40
2019-05-06T15:13:16.816Z,4.70
2019-05-06T15:15:45.121Z,3.80
2019-05-06T15:18:13.435Z,9.35
2019-05-06T15:20:42.499Z,6.47
2019-05-06T15:23:12.959Z,6.85
2019-05-06T15:25:40.881Z,5.25
2019-05-06T15:28:09.096Z,5.25
2019-05-06T15:30:48.360Z,5.30
2019-05-06T15:33:19.331Z,5.80
2019-05-06T15:36:06.542Z,5.90
2019-05-06T15:38:34.973Z,6.17
2019-05-06T15:41:05.694Z,6.08
2019-05-06T15:43:35.015Z,5.83
2019-05-06T15:46:03.495Z,6.70
2019-05-06T15:48:33.043Z,6.45
2019-05-06T15:51:02.112Z,6.60
2019-05-06T15:53:32.688Z,6.20
2019-05-06T15:56:00.277Z,6.10
2019-05-06T15:58:28.564Z,6.90
2019-05-06T16:00:58.237Z,6.42
2019-05-06T16:03:26.441Z,6.00
2019-05-06T16:05:55.304Z,5.90
2019-05-06T16:08:24.552Z,6.53
2019-05-06T16:10:58.211Z,6.37
2019-05-06T16:13:22.820Z,6.50
2019-05-06T16:15:53.203Z,6.23
2019-05-06T16:18:23.459Z,5.90
2019-05-06T16:20:51.888Z,5.80
2019-05-06T16:23:23.101Z,5.78
2019-05-06T16:25:52.396Z,6.05
2019-05-06T16:28:22.629Z,6.60
2019-05-06T16:30:53.202Z,6.25
2019-05-06T16:33:22.101Z,5.50
2019-05-06T16:35:52.222Z,5.37
2019-05-06T16:38:22.820Z,6.42
2019-05-06T16:40:50.551Z,6.97
2019-05-06T16:43:18.839Z,11.08
2019-05-06T16:45:47.379Z,8.35
2019-05-06T16:48:15.652Z,5.10
2019-05-06T16:50:45.225Z,4.95
2019-05-06T16:53:13.424Z,4.35
2019-05-06T16:55:55.711Z,2.42
2019-05-06T16:58:28.517Z,2.10
2019-05-06T17:00:58.378Z,2.08
2019-05-06T17:03:32.497Z,1.95
2019-05-06T17:06:02.508Z,1.67
2019-05-06T17:08:35.947Z,1.90
2019-05-06T17:11:04.459Z,1.67
2019-05-06T17:13:33.515Z,1.90
2019-05-06T17:16:02.571Z,2.22
2019-05-06T17:18:32.499Z,2.00
2019-05-06T17:21:00.841Z,4.10
2019-05-06T17:23:29.015Z,2.10
2019-05-06T17:25:57.212Z,2.20
2019-05-06T17:28:33.671Z,2.58
2019-05-06T17:31:22.301Z,3.02
2019-05-06T17:34:06.839Z,3.30
2019-05-06T17:36:37.725Z,3.47
2019-05-06T17:39:08.906Z,3.93
2019-05-06T17:41:47.605Z,3.52
2019-05-06T17:44:11.905Z,3.85
2019-05-06T17:46:58.199Z,4.20
2019-05-06T17:49:37.192Z,3.30
2019-05-06T17:52:13.052Z,3.25
2019-05-06T17:54:43.033Z,3.55
2019-05-06T17:57:12.324Z,3.72
2019-05-06T17:59:42.035Z,3.22
2019-05-06T18:02:12.079Z,7.47
2019-05-06T18:04:42.862Z,6.00
2019-05-06T18:07:12.096Z,4.30
2019-05-06T18:09:42.437Z,4.20
2019-05-06T18:12:12.226Z,4.40
2019-05-06T18:14:40.445Z,4.03
2019-05-06T18:17:08.615Z,3.95
2019-05-06T18:19:36.885Z,3.90
2019-05-06T18:22:05.110Z,3.93
2019-05-06T18:24:34.356Z,4.15
2019-05-06T18:27:02.848Z,4.53
2019-05-06T18:29:33.387Z,4.05
2019-05-06T18:32:03.875Z,3.98
2019-05-06T18:34:33.415Z,4.00
2019-05-06T18:37:03.301Z,4.27
2019-05-06T18:39:33.731Z,4.58
2019-05-06T18:42:15.556Z,4.30
2019-05-06T18:44:33.232Z,4.97
2019-05-06T18:47:02.742Z,4.60
2019-05-06T18:49:33.606Z,4.70
2019-05-06T18:52:02.234Z,4.42
2019-05-06T18:54:33.919Z,4.42
2019-05-06T18:57:04.780Z,4.50
2019-05-06T18:59:33.133Z,7.45
2019-05-06T19:02:02.118Z,4.20
2019-05-06T19:04:33.415Z,4.10
2019-05-06T19:07:12.435Z,4.35
2019-05-06T19:09:39.656Z,4.17
2019-05-06T19:12:07.962Z,4.03
2019-05-06T19:14:36.218Z,3.98
2019-05-06T19:17:04.469Z,4.10
2019-05-06T19:19:34.950Z,3.80
2019-05-06T19:22:03.016Z,4.20
2019-05-06T19:24:33.660Z,3.90
2019-05-06T19:27:02.213Z,3.83
2019-05-06T19:29:32.514Z,4.00
2019-05-06T19:32:00.166Z,5.07
2019-05-06T19:34:28.384Z,4.10
2019-05-06T19:36:56.558Z,4.30
2019-05-06T19:39:24.800Z,4.97
2019-05-06T19:41:52.901Z,4.60
2019-05-06T19:44:22.061Z,5.60
2019-05-06T19:46:50.435Z,5.22
2019-05-06T19:49:18.628Z,4.20
2019-05-06T19:51:47.880Z,5.42
2019-05-06T19:54:16.167Z,6.80
2019-05-06T19:56:44.444Z,5.57
2019-05-06T19:59:13.009Z,6.08
2019-05-06T20:01:42.917Z,6.90
2019-05-06T20:04:13.010Z,5.80
2019-05-06T20:06:45.506Z,6.62
2019-05-06T20:09:33.052Z,6.37
2019-05-06T20:12:15.014Z,5.60
2019-05-06T20:14:43.121Z,5.70
2019-05-06T20:17:12.892Z,7.90
2019-05-06T20:19:42.575Z,8.15
2019-05-06T20:22:12.878Z,5.47
2019-05-06T20:24:42.564Z,5.10
2019-05-06T20:27:13.278Z,5.17
2019-05-06T20:29:42.785Z,5.25
2019-05-06T20:32:12.306Z,4.83
2019-05-06T20:34:42.845Z,4.80
2019-05-06T20:37:12.891Z,4.12
2019-05-06T20:39:43.340Z,4.20
2019-05-06T20:42:12.747Z,4.42
2019-05-06T20:44:43.142Z,3.80
2019-05-06T20:47:12.920Z,4.40
2019-05-06T20:49:42.960Z,4.58
2019-05-06T20:52:12.286Z,4.20
2019-05-06T20:54:42.622Z,4.28
2019-05-06T20:57:12.248Z,3.98
2019-05-06T20:59:42.005Z,4.50
2019-05-06T21:02:12.357Z,3.90
2019-05-06T21:04:40.186Z,3.73
2019-05-06T21:07:08.313Z,4.55
2019-05-06T21:09:36.437Z,5.15
2019-05-06T21:12:04.643Z,4.70
2019-05-06T21:14:32.779Z,5.07
2019-05-06T21:17:02.565Z,4.30
2019-05-06T21:19:32.941Z,4.35
2019-05-06T21:22:02.311Z,4.40
2019-05-06T21:24:32.538Z,5.78
2019-05-06T21:27:02.638Z,5.50
2019-05-06T21:29:32.345Z,5.10
2019-05-06T21:32:02.591Z,4.30
2019-05-06T21:34:30.207Z,4.80
2019-05-06T21:36:58.369Z,3.30
2019-05-06T21:39:26.610Z,4.10
2019-05-06T21:41:54.708Z,4.05
2019-05-06T21:44:23.011Z,3.52
2019-05-06T21:46:51.161Z,4.05
2019-05-06T21:49:19.281Z,4.30
2019-05-06T21:51:47.347Z,4.13
2019-05-06T21:54:15.468Z,4.10
2019-05-06T21:56:43.544Z,4.17
2019-05-06T21:59:12.904Z,4.45
2019-05-06T22:01:42.987Z,4.60
2019-05-06T22:04:12.842Z,4.22
2019-05-06T22:06:42.794Z,4.60
2019-05-06T22:09:11.499Z,4.58
2019-05-06T22:11:42.128Z,4.10
2019-05-06T22:14:09.555Z,4.53
2019-05-06T22:16:37.627Z,4.90
2019-05-06T22:19:05.838Z,4.53
2019-05-06T22:21:35.216Z,4.53
2019-05-06T22:24:04.911Z,4.60
2019-05-06T22:26:33.081Z,4.67
2019-05-06T22:29:02.087Z,4.08
2019-05-06T22:31:30.401Z,4.95
2019-05-06T22:33:58.601Z,5.35
2019-05-06T22:36:26.878Z,4.72
2019-05-06T22:38:55.000Z,4.90
2019-05-06T22:41:25.432Z,4.50
2019-05-06T22:43:53.299Z,4.42
2019-05-06T22:46:23.382Z,4.62
2019-05-06T22:48:54.052Z,4.78
2019-05-06T22:51:22.886Z,4.70
2019-05-06T22:53:53.210Z,4.50
2019-05-06T22:56:22.830Z,4.60
2019-05-06T22:58:52.430Z,4.75
2019-05-06T23:01:40.552Z,4.65
2019-05-06T23:04:09.130Z,4.50
2019-05-06T23:06:37.401Z,4.58
2019-05-06T23:09:07.643Z,4.33
2019-05-06T23:11:36.441Z,4.42
2019-05-06T23:14:04.589Z,4.33
2019-05-06T23:16:34.853Z,4.67
2019-05-06T23:19:02.528Z,4.30
2019-05-06T23:21:30.643Z,4.22
2019-05-06T23:23:58.810Z,4.60
2019-05-06T23:26:26.927Z,5.00
2019-05-06T23:28:54.993Z,4.45
2019-05-06T23:31:24.483Z,4.50
2019-05-06T23:33:53.473Z,4.30
2019-05-06T23:36:22.924Z,4.58
2019-05-06T23:39:09.496Z,4.60
2019-05-06T23:41:57.206Z,4.70
2019-05-06T23:44:46.202Z,4.47
2019-05-06T23:47:33.467Z,4.58
2019-05-06T23:50:22.879Z,4.83
2019-05-06T23:53:08.800Z,4.70
2019-05-06T23:55:55.258Z,4.92
2019-05-06T23:58:22.919Z,4.85
